createdAt,value
2022-11-18T00:01:22.351Z,7.10
2022-11-18T00:03:51.367Z,7.00
2022-11-18T00:06:21.407Z,7.00
2022-11-18T00:08:49.665Z,7.00
2022-11-18T00:11:34.596Z,7.00
2022-11-18T00:14:19.784Z,7.00
2022-11-18T00:16:49.011Z,6.90
2022-11-18T00:19:17.784Z,7.00
2022-11-18T00:21:46.100Z,7.10
2022-11-18T00:24:14.245Z,7.00
2022-11-18T00:26:43.816Z,6.90
2022-11-18T00:29:12.175Z,6.90
2022-11-18T00:31:40.947Z,6.80
2022-11-18T00:34:11.854Z,6.70
2022-11-18T00:36:40.266Z,6.70
2022-11-18T00:39:08.390Z,6.70
2022-11-18T00:41:54.100Z,6.70
2022-11-18T00:44:23.611Z,6.70
2022-11-18T00:46:51.859Z,6.60
2022-11-18T00:49:20.157Z,6.60
2022-11-18T00:51:48.372Z,6.60
2022-11-18T00:54:16.585Z,6.50
2022-11-18T00:56:44.730Z,6.50
2022-11-18T00:59:12.861Z,6.50
2022-11-18T01:01:42.614Z,6.60
2022-11-18T01:04:10.692Z,6.60
2022-11-18T01:06:38.857Z,6.50
2022-11-18T01:09:07.138Z,6.60
2022-11-18T01:11:52.441Z,6.60
2022-11-18T01:14:20.902Z,6.50
2022-11-18T01:16:51.381Z,6.50
2022-11-18T01:19:20.173Z,6.50
2022-11-18T01:21:48.664Z,6.40
2022-11-18T01:24:16.784Z,6.50
2022-11-18T01:26:44.916Z,6.60
2022-11-18T01:29:13.022Z,6.60
2022-11-18T01:32:01.502Z,6.50
2022-11-18T01:34:31.052Z,6.50
2022-11-18T01:36:59.149Z,6.50
2022-11-18T01:39:27.591Z,6.50
2022-11-18T01:41:55.786Z,6.30
2022-11-18T01:44:59.957Z,6.50
2022-11-18T01:47:32.919Z,6.40
2022-11-18T01:50:03.380Z,6.40
2022-11-18T01:52:33.969Z,6.40
2022-11-18T01:55:07.237Z,6.40
2022-11-18T01:57:35.632Z,6.40
2022-11-18T02:00:05.649Z,6.40
2022-11-18T02:02:36.797Z,6.40
2022-11-18T02:05:08.730Z,6.30
2022-11-18T02:07:40.117Z,6.30
2022-11-18T02:10:10.408Z,6.20
2022-11-18T02:12:39.190Z,6.20
2022-11-18T02:15:08.434Z,6.10
2022-11-18T02:17:46.970Z,6.10
2022-11-18T02:20:32.909Z,6.00
2022-11-18T02:24:01.523Z,6.00
2022-11-18T02:27:01.197Z,6.00
2022-11-18T02:29:33.917Z,6.00
2022-11-18T02:32:07.099Z,6.00
2022-11-18T02:34:42.630Z,6.00
2022-11-18T02:37:17.917Z,6.00
2022-11-18T02:39:54.491Z,6.00
2022-11-18T02:42:25.651Z,6.00
2022-11-18T02:45:00.971Z,6.00
2022-11-18T02:47:30.535Z,5.90
2022-11-18T02:50:02.857Z,6.00
2022-11-18T02:52:33.769Z,6.00
2022-11-18T02:55:03.853Z,6.00
2022-11-18T02:57:33.879Z,6.10
2022-11-18T03:00:03.537Z,6.10
2022-11-18T03:02:42.849Z,6.20
2022-11-18T03:05:18.461Z,6.20
2022-11-18T03:07:52.758Z,6.20
2022-11-18T03:10:22.977Z,6.20
2022-11-18T03:13:00.779Z,6.20
2022-11-18T03:15:38.327Z,6.10
2022-11-18T03:18:17.155Z,6.10
2022-11-18T03:20:50.208Z,6.20
2022-11-18T03:23:25.733Z,6.20
2022-11-18T03:25:57.161Z,6.10
2022-11-18T03:28:28.651Z,6.10
2022-11-18T03:31:03.502Z,6.10
2022-11-18T03:33:36.193Z,6.10
2022-11-18T03:36:07.938Z,6.10
2022-11-18T03:38:39.732Z,6.10
2022-11-18T03:41:11.170Z,6.00
2022-11-18T03:43:42.864Z,6.00
2022-11-18T03:46:16.648Z,6.00
2022-11-18T03:48:49.158Z,6.00
2022-11-18T03:51:21.357Z,6.00
2022-11-18T03:53:55.073Z,5.90
2022-11-18T03:56:26.370Z,5.90
2022-11-18T03:59:01.620Z,5.90
2022-11-18T04:01:36.946Z,5.90
2022-11-18T04:04:05.765Z,6.00
2022-11-18T04:06:39.162Z,5.90
2022-11-18T04:09:22.888Z,6.00
2022-11-18T04:12:05.705Z,6.00
2022-11-18T04:14:36.047Z,6.00
2022-11-18T04:17:10.033Z,6.00
2022-11-18T04:19:38.547Z,5.90
2022-11-18T04:22:07.352Z,5.90
2022-11-18T04:24:35.697Z,5.90
2022-11-18T04:27:04.837Z,5.90
2022-11-18T04:29:33.609Z,6.00
2022-11-18T04:32:02.640Z,6.00
2022-11-18T04:34:32.552Z,6.00
2022-11-18T04:37:00.614Z,6.10
2022-11-18T04:39:28.832Z,6.30
2022-11-18T04:41:57.070Z,6.50
2022-11-18T04:44:26.927Z,6.60
2022-11-18T04:46:55.968Z,6.60
2022-11-18T04:49:24.482Z,6.60
2022-11-18T04:51:54.613Z,6.50
2022-11-18T04:54:23.596Z,6.50
2022-11-18T04:56:51.718Z,6.50
2022-11-18T04:59:22.699Z,6.40
2022-11-18T05:01:51.712Z,6.40
2022-11-18T05:04:22.173Z,6.30
2022-11-18T05:06:50.698Z,6.30
2022-11-18T05:09:21.022Z,6.20
2022-11-18T05:12:07.384Z,6.20
2022-11-18T05:14:35.606Z,6.20
2022-11-18T05:17:06.096Z,6.20
2022-11-18T05:19:34.439Z,6.10
2022-11-18T05:22:02.489Z,6.10
2022-11-18T05:24:31.913Z,6.10
2022-11-18T05:27:00.109Z,6.10
2022-11-18T05:29:28.331Z,6.20
2022-11-18T05:31:56.446Z,6.20
2022-11-18T05:34:24.777Z,6.20
2022-11-18T05:36:52.893Z,6.20
2022-11-18T05:39:21.405Z,6.20
2022-11-18T05:42:08.447Z,6.20
2022-11-18T05:44:36.704Z,6.20
2022-11-18T05:47:04.829Z,6.20
2022-11-18T05:49:32.980Z,6.40
2022-11-18T05:52:01.071Z,6.40
2022-11-18T05:54:29.647Z,6.40
2022-11-18T05:56:59.155Z,6.30
2022-11-18T05:59:27.307Z,6.30
2022-11-18T06:01:59.693Z,6.50
2022-11-18T06:04:31.847Z,6.60
2022-11-18T06:07:04.317Z,6.50
2022-11-18T06:09:36.380Z,6.40
2022-11-18T06:12:07.864Z,6.60
2022-11-18T06:14:40.965Z,6.60
2022-11-18T06:17:16.232Z,6.60
2022-11-18T06:19:44.589Z,6.70
2022-11-18T06:22:12.761Z,6.70
2022-11-18T06:24:41.396Z,6.80
2022-11-18T06:27:11.107Z,6.90
2022-11-18T06:29:39.409Z,6.80
2022-11-18T06:32:07.712Z,6.90
2022-11-18T06:34:41.201Z,6.90
2022-11-18T06:37:17.528Z,6.90
2022-11-18T06:39:45.690Z,7.00
2022-11-18T06:42:35.395Z,7.00
2022-11-18T06:45:02.783Z,7.00
2022-11-18T06:47:31.206Z,7.00
2022-11-18T06:49:59.378Z,7.00
2022-11-18T06:52:27.517Z,7.00
2022-11-18T06:54:55.569Z,7.10
2022-11-18T06:57:25.139Z,7.20
2022-11-18T06:59:55.496Z,7.10
2022-11-18T07:02:27.491Z,7.10
2022-11-18T07:04:55.515Z,7.00
2022-11-18T07:07:23.746Z,7.00
2022-11-18T07:09:51.972Z,7.00
2022-11-18T07:12:20.029Z,6.90
2022-11-18T07:14:49.612Z,6.90
2022-11-18T07:17:17.812Z,6.90
2022-11-18T07:19:46.007Z,7.00
2022-11-18T07:22:14.087Z,7.10
2022-11-18T07:24:43.404Z,7.20
2022-11-18T07:27:11.475Z,7.10
2022-11-18T07:29:39.610Z,7.10
2022-11-18T07:32:09.390Z,7.10
2022-11-18T07:34:37.465Z,7.20
2022-11-18T07:37:05.559Z,7.10
2022-11-18T07:39:33.705Z,7.20
2022-11-18T07:42:01.819Z,7.20
2022-11-18T07:44:29.861Z,7.10
2022-11-18T07:46:57.950Z,7.10
2022-11-18T07:49:27.841Z,7.00
2022-11-18T07:51:55.950Z,7.00
2022-11-18T07:54:24.061Z,7.00
2022-11-18T07:56:52.238Z,7.00
2022-11-18T07:59:20.659Z,7.00
2022-11-18T08:01:48.980Z,7.00
2022-11-18T08:04:18.077Z,7.00
2022-11-18T08:06:47.765Z,7.10
2022-11-18T08:09:16.253Z,7.00
2022-11-18T08:11:44.476Z,7.00
2022-11-18T08:14:12.827Z,7.00
2022-11-18T08:16:40.921Z,7.10
2022-11-18T08:19:09.113Z,7.10
2022-11-18T08:21:37.288Z,7.10
2022-11-18T08:24:07.741Z,7.10
2022-11-18T08:26:35.893Z,7.10
2022-11-18T08:29:04.204Z,7.10
2022-11-18T08:31:32.316Z,7.10
2022-11-18T08:34:02.068Z,7.10
2022-11-18T08:36:32.699Z,7.00
2022-11-18T08:39:02.697Z,7.00
2022-11-18T08:41:34.404Z,7.00
2022-11-18T08:44:28.236Z,7.00
2022-11-18T08:46:56.968Z,7.10
2022-11-18T08:49:31.132Z,7.10
2022-11-18T08:52:00.755Z,7.10
2022-11-18T08:54:28.939Z,7.10
2022-11-18T08:56:57.026Z,7.00
2022-11-18T09:02:31.380Z,6.90
2022-11-18T09:05:18.328Z,6.80
2022-11-18T09:17:05.597Z,6.90
2022-11-18T09:25:44.820Z,6.80
2022-11-18T09:28:32.680Z,6.80
2022-11-18T09:31:04.946Z,6.80
2022-11-18T09:33:33.080Z,6.90
2022-11-18T09:36:02.871Z,6.90
2022-11-18T09:42:05.616Z,7.00
2022-11-18T09:45:11.767Z,7.00
2022-11-18T09:48:02.924Z,7.00
2022-11-18T09:53:22.799Z,7.00
2022-11-18T09:55:52.390Z,7.00
2022-11-18T09:58:27.977Z,7.00
2022-11-18T10:00:56.061Z,7.10
2022-11-18T10:03:28.666Z,7.10
2022-11-18T10:06:02.829Z,7.00
2022-11-18T10:08:37.929Z,6.90
2022-11-18T10:11:12.073Z,6.90
2022-11-18T10:13:50.034Z,6.90
2022-11-18T10:16:34.093Z,6.90
2022-11-18T10:19:13.177Z,6.90
2022-11-18T10:21:53.098Z,6.90
2022-11-18T10:24:26.021Z,6.90
2022-11-18T10:26:56.993Z,6.90
2022-11-18T10:29:25.903Z,6.80
2022-11-18T10:31:59.670Z,6.90
2022-11-18T10:34:32.639Z,6.80
2022-11-18T10:37:02.374Z,6.70
2022-11-18T10:39:32.141Z,6.60
2022-11-18T10:42:04.125Z,6.60
2022-11-18T10:44:38.435Z,6.60
2022-11-18T10:47:31.492Z,6.60
2022-11-18T10:50:02.167Z,6.60
2022-11-18T10:52:31.733Z,6.70
2022-11-18T10:55:25.640Z,6.60
2022-11-18T10:57:58.140Z,6.60
2022-11-18T11:00:39.030Z,6.60
2022-11-18T11:03:35.181Z,6.50
2022-11-18T11:06:25.767Z,6.40
2022-11-18T11:08:56.203Z,6.20
2022-11-18T11:11:28.810Z,6.20
2022-11-18T11:14:03.145Z,6.10
2022-11-18T11:16:33.721Z,5.90
2022-11-18T11:19:04.991Z,5.90
2022-11-18T11:21:33.164Z,5.80
2022-11-18T11:24:01.369Z,5.80
2022-11-18T11:29:38.432Z,6.00
2022-11-18T11:32:12.004Z,6.20
2022-11-18T11:34:47.570Z,6.30
2022-11-18T11:37:21.541Z,6.30
2022-11-18T11:40:01.311Z,6.30
2022-11-18T11:42:43.865Z,6.30
2022-11-18T11:45:21.137Z,6.30
2022-11-18T11:48:12.657Z,6.30
2022-11-18T11:51:02.053Z,6.30
2022-11-18T11:54:12.155Z,6.30
2022-11-18T11:56:45.683Z,6.30
2022-11-18T11:59:29.824Z,6.20
2022-11-18T12:02:16.086Z,6.30
2022-11-18T12:04:47.423Z,6.40
2022-11-18T12:07:20.586Z,6.30
2022-11-18T12:10:18.256Z,6.30
2022-11-18T12:12:54.059Z,6.10
2022-11-18T12:15:40.388Z,6.00
2022-11-18T12:18:16.710Z,6.20
2022-11-18T12:20:47.183Z,6.30
2022-11-18T12:23:19.033Z,6.40
2022-11-18T12:25:56.510Z,6.40
2022-11-18T12:28:27.271Z,6.50
2022-11-18T12:31:37.270Z,6.40
2022-11-18T12:34:19.560Z,6.40
2022-11-18T12:36:48.181Z,6.30
2022-11-18T12:39:49.443Z,6.30
2022-11-18T12:42:55.314Z,6.30
2022-11-18T12:45:53.905Z,6.30
2022-11-18T12:48:35.990Z,6.20
2022-11-18T12:51:32.073Z,6.10
2022-11-18T12:54:00.897Z,6.10
2022-11-18T12:56:31.831Z,6.00
2022-11-18T12:59:01.429Z,6.00
2022-11-18T13:01:34.493Z,5.90
2022-11-18T13:04:13.090Z,5.90
2022-11-18T13:06:42.032Z,5.90
2022-11-18T13:09:17.140Z,5.90
2022-11-18T13:11:48.863Z,5.80
2022-11-18T13:14:36.819Z,5.80
2022-11-18T13:17:41.484Z,5.80
2022-11-18T13:20:22.794Z,5.70
2022-11-18T13:23:09.815Z,5.60
2022-11-18T13:25:38.018Z,5.60
2022-11-18T13:28:15.161Z,5.60
2022-11-18T13:30:52.103Z,5.50
2022-11-18T13:33:20.460Z,5.50
2022-11-18T13:35:50.187Z,5.40
2022-11-18T13:38:27.787Z,5.40
2022-11-18T13:41:07.937Z,5.40
2022-11-18T13:43:38.465Z,5.40
2022-11-18T13:46:10.144Z,5.30
2022-11-18T13:48:42.745Z,5.20
2022-11-18T13:51:13.965Z,5.30
2022-11-18T13:53:43.513Z,5.30
2022-11-18T13:56:21.259Z,5.30
2022-11-18T13:59:16.424Z,5.30
2022-11-18T14:01:45.959Z,5.40
2022-11-18T14:04:20.349Z,5.30
2022-11-18T14:06:50.218Z,5.30
2022-11-18T14:09:24.050Z,5.30
2022-11-18T14:12:04.694Z,5.30
2022-11-18T14:14:34.899Z,5.30
2022-11-18T14:17:17.985Z,5.20
2022-11-18T14:19:47.592Z,5.20
2022-11-18T14:22:20.667Z,5.20
2022-11-18T14:24:56.580Z,5.20
2022-11-18T14:27:39.534Z,5.10
2022-11-18T14:30:33.352Z,5.10
2022-11-18T14:33:14.209Z,5.10
2022-11-18T14:35:44.475Z,5.10
2022-11-18T14:38:37.082Z,5.10
2022-11-18T14:41:10.726Z,5.00
2022-11-18T14:43:39.043Z,5.10
2022-11-18T14:46:13.229Z,5.10
2022-11-18T14:48:41.471Z,5.20
2022-11-18T14:51:13.929Z,5.20
2022-11-18T14:53:44.813Z,5.20
2022-11-18T14:56:18.986Z,5.30
2022-11-18T14:58:47.271Z,5.20
2022-11-18T15:01:15.651Z,5.20
2022-11-18T15:03:43.874Z,5.20
2022-11-18T15:06:14.964Z,5.30
2022-11-18T15:08:45.994Z,5.30
2022-11-18T15:11:14.825Z,5.40
2022-11-18T15:13:43.390Z,5.50
2022-11-18T15:16:15.536Z,5.50
2022-11-18T15:18:44.396Z,5.50
2022-11-18T15:21:12.670Z,5.50
2022-11-18T15:23:40.705Z,5.60
2022-11-18T15:26:19.859Z,5.60
2022-11-18T15:28:48.783Z,5.60
2022-11-18T15:31:17.436Z,5.60
2022-11-18T15:33:46.632Z,5.70
2022-11-18T15:36:16.557Z,5.70
2022-11-18T15:38:45.091Z,5.70
2022-11-18T15:41:18.479Z,5.70
2022-11-18T15:43:48.026Z,5.80
2022-11-18T15:46:16.544Z,5.90
2022-11-18T15:48:44.726Z,5.90
2022-11-18T15:51:13.199Z,5.90
2022-11-18T15:53:41.704Z,5.80
2022-11-18T15:56:25.810Z,5.80
2022-11-18T15:58:56.658Z,5.70
2022-11-18T16:01:27.131Z,5.70
2022-11-18T16:03:55.290Z,5.70
2022-11-18T16:06:23.840Z,5.70
2022-11-18T16:08:59.156Z,5.70
2022-11-18T16:11:48.478Z,5.60
2022-11-18T16:14:19.268Z,5.70
2022-11-18T16:16:49.026Z,5.70
2022-11-18T16:19:19.417Z,5.70
2022-11-18T16:21:50.035Z,5.70
2022-11-18T16:24:20.970Z,5.70
2022-11-18T16:26:51.197Z,5.70
2022-11-18T16:29:20.771Z,5.60
2022-11-18T16:31:52.182Z,5.60
2022-11-18T16:34:22.426Z,5.60
2022-11-18T16:36:52.165Z,5.60
2022-11-18T16:39:25.176Z,5.60
2022-11-18T16:42:00.762Z,5.60
2022-11-18T16:44:35.068Z,5.60
2022-11-18T16:47:09.177Z,5.60
2022-11-18T16:49:40.949Z,5.50
2022-11-18T16:52:09.880Z,5.50
2022-11-18T16:54:44.341Z,5.40
2022-11-18T16:57:15.499Z,5.40
2022-11-18T16:59:43.700Z,5.50
2022-11-18T17:02:13.945Z,5.40
2022-11-18T17:04:42.666Z,5.50
2022-11-18T17:07:10.843Z,5.70
2022-11-18T17:09:39.011Z,5.60
2022-11-18T17:12:07.940Z,5.60
2022-11-18T17:14:38.512Z,5.60
2022-11-18T17:17:07.044Z,5.60
2022-11-18T17:19:35.164Z,5.60
2022-11-18T17:22:03.281Z,5.70
2022-11-18T17:24:31.401Z,5.70
2022-11-18T17:26:59.574Z,5.90
2022-11-18T17:29:27.784Z,5.90
2022-11-18T17:31:57.155Z,5.90
2022-11-18T17:34:25.256Z,5.90
2022-11-18T17:36:53.581Z,5.90
2022-11-18T17:39:21.771Z,5.90
2022-11-18T17:42:07.467Z,5.90
2022-11-18T17:44:35.547Z,6.00
2022-11-18T17:47:05.044Z,6.00
2022-11-18T17:49:33.317Z,6.00
2022-11-18T17:52:01.354Z,5.90
2022-11-18T17:54:29.395Z,6.00
2022-11-18T17:56:57.483Z,6.00
2022-11-18T17:59:25.581Z,6.00
2022-11-18T18:01:59.010Z,6.00
2022-11-18T18:04:29.206Z,6.00
2022-11-18T18:06:57.560Z,6.00
2022-11-18T18:09:30.596Z,6.00
2022-11-18T18:12:00.624Z,5.90
2022-11-18T18:14:27.910Z,5.70
2022-11-18T18:16:56.002Z,5.70
2022-11-18T18:19:25.423Z,5.70
2022-11-18T18:21:54.830Z,5.70
2022-11-18T18:24:23.284Z,5.70
2022-11-18T18:26:51.627Z,5.80
2022-11-18T18:29:19.887Z,5.80
2022-11-18T18:31:47.958Z,5.70
2022-11-18T18:34:16.850Z,5.80
2022-11-18T18:36:45.673Z,5.80
2022-11-18T18:39:15.095Z,5.80
2022-11-18T18:41:43.231Z,5.80
2022-11-18T18:44:16.862Z,5.70
2022-11-18T18:46:45.720Z,5.80
2022-11-18T18:49:15.657Z,5.70
2022-11-18T18:51:45.072Z,5.60
2022-11-18T18:54:16.554Z,5.40
2022-11-18T18:56:45.391Z,5.30
2022-11-18T18:59:13.574Z,5.30
2022-11-18T19:01:41.792Z,5.30
2022-11-18T19:04:13.562Z,5.30
2022-11-18T19:06:54.935Z,5.10
2022-11-18T19:09:28.086Z,5.10
2022-11-18T19:12:14.584Z,5.10
2022-11-18T19:14:42.815Z,5.10
2022-11-18T19:17:12.564Z,5.00
2022-11-18T19:20:00.144Z,5.00
2022-11-18T19:22:31.410Z,5.00
2022-11-18T19:25:01.960Z,5.00
2022-11-18T19:27:30.760Z,4.90
2022-11-18T19:29:58.837Z,4.90
2022-11-18T19:32:27.035Z,5.00
2022-11-18T19:34:55.203Z,4.90
2022-11-18T19:37:23.243Z,4.90
2022-11-18T19:39:51.251Z,4.90
2022-11-18T19:42:20.964Z,4.90
2022-11-18T19:44:49.010Z,4.90
2022-11-18T19:47:17.012Z,4.90
2022-11-18T19:49:45.096Z,4.90
2022-11-18T19:52:13.293Z,4.90
2022-11-18T19:54:41.549Z,4.80
2022-11-18T19:57:09.713Z,5.00
2022-11-18T19:59:39.606Z,5.00
2022-11-18T20:02:08.845Z,5.10
2022-11-18T20:04:39.976Z,5.10
2022-11-18T20:07:08.137Z,5.10
2022-11-18T20:09:36.211Z,5.10
2022-11-18T20:12:04.339Z,5.20
2022-11-18T20:14:32.514Z,5.10
2022-11-18T20:17:03.097Z,5.20
2022-11-18T20:19:31.222Z,5.30
2022-11-18T20:21:59.293Z,5.40
2022-11-18T20:24:27.584Z,5.30
2022-11-18T20:26:55.787Z,5.20
2022-11-18T20:29:24.014Z,5.20
2022-11-18T20:31:53.563Z,5.30
2022-11-18T20:34:23.129Z,5.20
2022-11-18T20:36:53.138Z,5.30
2022-11-18T20:39:21.704Z,5.30
2022-11-18T20:42:06.513Z,5.20
2022-11-18T20:44:34.822Z,5.20
2022-11-18T20:47:03.034Z,5.20
2022-11-18T20:49:32.516Z,5.20
2022-11-18T20:52:00.647Z,5.20
2022-11-18T20:54:28.756Z,5.20
2022-11-18T20:56:57.559Z,5.20
2022-11-18T20:59:25.922Z,5.20
2022-11-18T21:01:54.085Z,5.20
2022-11-18T21:04:22.324Z,5.20
2022-11-18T21:06:57.289Z,5.30
2022-11-18T21:09:26.520Z,5.30
2022-11-18T21:11:54.727Z,5.20
2022-11-18T21:14:25.262Z,5.30
2022-11-18T21:16:55.243Z,5.20
2022-11-18T21:19:24.038Z,5.10
2022-11-18T21:21:53.253Z,5.10
2022-11-18T21:24:22.983Z,5.10
2022-11-18T21:26:54.499Z,5.10
2022-11-18T21:29:23.810Z,5.00
2022-11-18T21:31:52.473Z,4.90
2022-11-18T21:34:21.678Z,4.90
2022-11-18T21:36:54.214Z,4.90
2022-11-18T21:39:24.501Z,4.80
2022-11-18T21:41:56.279Z,4.80
2022-11-18T21:44:26.155Z,4.70
2022-11-18T21:46:54.589Z,4.60
2022-11-18T21:49:23.059Z,4.50
2022-11-18T21:51:51.292Z,4.40
2022-11-18T21:54:19.294Z,4.30
2022-11-18T21:56:49.324Z,4.30
2022-11-18T21:59:17.663Z,4.20
2022-11-18T22:01:45.997Z,4.20
2022-11-18T22:04:34.076Z,4.20
2022-11-18T22:07:02.720Z,4.20
2022-11-18T22:09:36.178Z,4.20
2022-11-18T22:12:07.827Z,4.20
2022-11-18T22:14:36.122Z,4.20
2022-11-18T22:17:05.292Z,4.20
2022-11-18T22:19:33.601Z,4.20
2022-11-18T22:22:01.993Z,4.30
2022-11-18T22:24:30.068Z,4.30
2022-11-18T22:26:58.899Z,4.30
2022-11-18T22:29:28.401Z,4.20
2022-11-18T22:31:57.141Z,4.20
2022-11-18T22:34:25.292Z,4.20
2022-11-18T22:36:53.368Z,4.30
2022-11-18T22:39:21.957Z,4.20
2022-11-18T22:42:07.875Z,4.20
2022-11-18T22:44:37.290Z,4.30
2022-11-18T22:47:05.424Z,4.40
2022-11-18T22:49:33.514Z,4.30
2022-11-18T22:52:01.898Z,4.30
2022-11-18T22:54:39.222Z,4.10
2022-11-18T22:57:08.782Z,4.10
2022-11-18T22:59:38.314Z,4.10
2022-11-18T23:02:06.750Z,4.00
2022-11-18T23:04:34.958Z,4.00
2022-11-18T23:07:03.109Z,4.00
2022-11-18T23:09:31.586Z,4.00
2022-11-18T23:12:16.993Z,4.00
2022-11-18T23:14:46.471Z,4.10
2022-11-18T23:17:15.881Z,4.20
2022-11-18T23:19:44.125Z,4.20
2022-11-18T23:22:12.709Z,4.20
2022-11-18T23:24:41.020Z,4.30
2022-11-18T23:27:09.413Z,4.30
2022-11-18T23:29:38.516Z,4.30
2022-11-18T23:32:07.978Z,4.40
2022-11-18T23:34:36.160Z,4.40
2022-11-18T23:37:04.256Z,4.40
2022-11-18T23:39:32.319Z,4.60
2022-11-18T23:42:00.480Z,4.60
2022-11-18T23:44:46.605Z,4.50
2022-11-18T23:47:16.122Z,4.70
2022-11-18T23:49:44.204Z,4.70
2022-11-18T23:52:12.715Z,4.70
2022-11-18T23:54:40.757Z,4.70
2022-11-18T23:57:08.920Z,4.80
2022-11-18T23:59:36.936Z,4.80
